| time (UTC) | temp F | wind direction | speed MPH | gust MPH | rain 1hr in | rain 24hr in | rain mn in | humidity % | barometer mb |
| 20260510053053 | 48 | 360 | 3.0 | 5.0 | 0.00 | 0.00 | 0.00 | 42 | 977.1 |
| 20260510051543 | 49 | 360 | 2.0 | 8.0 | 0.00 | 0.00 | 0.00 | 41 | 977.0 |
| 20260510050033 | 49 | 360 | 2.0 | 7.0 | 0.00 | 0.00 | 0.00 | 41 | 976.6 |
| 20260510044533 | 50 | 360 | 3.0 | 8.0 | 0.00 | 0.00 | 0.00 | 40 | 976.7 |
| 20260510043041 | 50 | 360 | 2.0 | 7.0 | 0.00 | 0.00 | 0.00 | 40 | 976.6 |
| 20260510041531 | 50 | 360 | 2.0 | 5.0 | 0.00 | 0.00 | 0.00 | 39 | 976.4 |
| 20260510040036 | 51 | 360 | 2.0 | 7.0 | 0.00 | 0.00 | 0.00 | 38 | 976.2 |
| 20260510034526 | 52 | 360 | 2.0 | 6.0 | 0.00 | 0.00 | 0.00 | 37 | 975.9 |
| 20260510033024 | 53 | 360 | 2.0 | 6.0 | 0.00 | 0.00 | 0.00 | 36 | 975.8 |
| 20260510031525 | 53 | 360 | 2.0 | 6.0 | 0.00 | 0.00 | 0.00 | 36 | 975.7 |
| 20260510030021 | 54 | 360 | 1.0 | 6.0 | 0.00 | 0.00 | 0.00 | 37 | 975.4 |
| 20260510024520 | 55 | 360 | 2.0 | 7.0 | 0.00 | 0.00 | 0.00 | 35 | 975.1 |
| 20260510023017 | 55 | 360 | 4.0 | 8.0 | 0.00 | 0.00 | 0.00 | 34 | 974.8 |
| 20260510021530 | 56 | 360 | 3.0 | 8.0 | 0.00 | 0.00 | 0.00 | 34 | 974.5 |
| 20260510020013 | 57 | 360 | 3.0 | 6.0 | 0.00 | 0.00 | 0.00 | 34 | 974.2 |
| 20260510014511 | 57 | 360 | 2.0 | 6.0 | 0.00 | 0.00 | 0.00 | 33 | 973.9 |
| 20260510013007 | 58 | 360 | 3.0 | 8.0 | 0.00 | 0.00 | 0.00 | 33 | 973.5 |
| 20260510011506 | 59 | 360 | 3.0 | 9.0 | 0.00 | 0.00 | 0.00 | 32 | 973.1 |
| 20260510010004 | 60 | 360 | 6.0 | 12.0 | 0.00 | 0.00 | 0.00 | 31 | 972.9 |
| 20260510004501 | 61 | 360 | 9.0 | 16.0 | 0.00 | 0.00 | 0.00 | 29 | 972.7 |
| 20260510003103 | 62 | 360 | 9.0 | 20.0 | 0.00 | 0.00 | 0.00 | 30 | 972.4 |
| 20260510001558 | 63 | 6 | 5.0 | 17.0 | 0.00 | 0.00 | 0.00 | 31 | 972.2 |
| 20260510000101 | 64 | 6 | 10.0 | 16.0 | 0.00 | 0.00 | 0.00 | 29 | 971.9 |
| 20260509234554 | 64 | 6 | 8.0 | 17.0 | 0.00 | 0.00 | 0.00 | 31 | 971.7 |
| 20260509233056 | 65 | 5 | 7.0 | 17.0 | 0.00 | 0.00 | 0.00 | 31 | 971.6 |
| 20260509231551 | 65 | 5 | 10.0 | 19.0 | 0.00 | 0.00 | 0.00 | 30 | 971.4 |
| 20260509230054 | 66 | 5 | 9.0 | 22.0 | 0.00 | 0.00 | 0.00 | 30 | 971.2 |
| 20260509224548 | 66 | 5 | 10.0 | 22.0 | 0.00 | 0.00 | 0.00 | 29 | 970.9 |
| 20260509223047 | 66 | 6 | 7.0 | 17.0 | 0.00 | 0.00 | 0.00 | 32 | 970.6 |
| 20260509221546 | 67 | 6 | 7.0 | 24.0 | 0.00 | 0.00 | 0.00 | 29 | 970.6 |
| 20260509220045 | 68 | 5 | 4.0 | 23.0 | 0.00 | 0.00 | 0.00 | 35 | 970.5 |
| 20260509214558 | 67 | 6 | 8.0 | 19.0 | 0.00 | 0.00 | 0.00 | 31 | 970.3 |
| 20260509213041 | 67 | 6 | 11.0 | 21.0 | 0.00 | 0.00 | 0.00 | 31 | 970.3 |
| 20260509211538 | 68 | 6 | 7.0 | 20.0 | 0.00 | 0.00 | 0.00 | 32 | 970.1 |
| 20260509210042 | 68 | 6 | 7.0 | 16.0 | 0.00 | 0.00 | 0.00 | 33 | 970.0 |
| 20260509204537 | 68 | 5 | 10.0 | 24.0 | 0.00 | 0.00 | 0.00 | 32 | 969.9 |
| 20260509203037 | 68 | 6 | 6.0 | 20.0 | 0.00 | 0.00 | 0.00 | 35 | 970.0 |
| 20260509201534 | 67 | 5 | 11.0 | 21.0 | 0.00 | 0.00 | 0.00 | 35 | 969.9 |
| 20260509200035 | 68 | 6 | 15.0 | 24.0 | 0.00 | 0.00 | 0.00 | 34 | 969.9 |
| 20260509194534 | 68 | 6 | 8.0 | 18.0 | 0.00 | 0.00 | 0.00 | 37 | 969.6 |
| 20260509193031 | 67 | 5 | 11.0 | 19.0 | 0.00 | 0.00 | 0.00 | 38 | 969.5 |
| 20260509191539 | 66 | 5 | 8.0 | 18.0 | 0.00 | 0.00 | 0.00 | 46 | 969.6 |
| 20260509190057 | 64 | 5 | 6.0 | 17.0 | 0.00 | 0.00 | 0.00 | 51 | 969.7 |
| 20260509184534 | 64 | 360 | 5.0 | 16.0 | 0.00 | 0.00 | 0.00 | 55 | 969.8 |
| 20260509183030 | 62 | 360 | 8.0 | 16.0 | 0.00 | 0.00 | 0.00 | 57 | 969.9 |
| 20260509181521 | 62 | 360 | 7.0 | 19.0 | 0.00 | 0.00 | 0.00 | 56 | 969.7 |
| 20260509180021 | 61 | 360 | 11.0 | 17.0 | 0.00 | 0.00 | 0.00 | 58 | 969.3 |
| 20260509174523 | 62 | 360 | 7.0 | 16.0 | 0.00 | 0.00 | 0.00 | 55 | 969.2 |
| 20260509173019 | 64 | 5 | 9.0 | 15.0 | 0.00 | 0.00 | 0.00 | 51 | 969.6 |
| 20260509171517 | 65 | 6 | 9.0 | 16.0 | 0.00 | 0.00 | 0.00 | 51 | 969.2 |
| 20260509170022 | 65 | 6 | 6.0 | 18.0 | 0.00 | 0.00 | 0.00 | 52 | 969.1 |
| 20260509164514 | 66 | 6 | 7.0 | 16.0 | 0.00 | 0.00 | 0.00 | 48 | 969.0 |
| 20260509163012 | 65 | 5 | 6.0 | 19.0 | 0.00 | 0.00 | 0.00 | 48 | 968.9 |
| 20260509161508 | 63 | 5 | 4.0 | 11.0 | 0.00 | 0.00 | 0.00 | 48 | 968.6 |
| 20260509160006 | 62 | 6 | 2.0 | 12.0 | 0.00 | 0.00 | 0.00 | 49 | 968.4 |
| 20260509154504 | 62 | 6 | 2.0 | 12.0 | 0.00 | 0.00 | 0.00 | 49 | 968.3 |
| 20260509153005 | 62 | 6 | 4.0 | 9.0 | 0.00 | 0.00 | 0.00 | 48 | 968.4 |
| 20260509151501 | 62 | 6 | 8.0 | 14.0 | 0.00 | 0.00 | 0.00 | 46 | 968.5 |
| 20260509150002 | 62 | 6 | 3.0 | 8.0 | 0.00 | 0.00 | 0.00 | 43 | 968.1 |
| 20260509144600 | 62 | 5 | 4.0 | 14.0 | 0.00 | 0.00 | 0.00 | 44 | 968.4 |
| 20260509143059 | 62 | 6 | 4.0 | 13.0 | 0.00 | 0.00 | 0.00 | 42 | 968.2 |
| 20260509141557 | 63 | 6 | 11.0 | 18.0 | 0.00 | 0.00 | 0.00 | 38 | 968.3 |
| 20260509140101 | 63 | 6 | 8.0 | 16.0 | 0.00 | 0.00 | 0.00 | 38 | 968.2 |
| 20260509134554 | 63 | 4 | 9.0 | 17.0 | 0.00 | 0.00 | 0.00 | 39 | 968.0 |
| 20260509133055 | 61 | 6 | 7.0 | 15.0 | 0.00 | 0.00 | 0.00 | 42 | 968.0 |
| 20260509131552 | 59 | 5 | 11.0 | 22.0 | 0.00 | 0.00 | 0.00 | 45 | 968.3 |
| 20260509130103 | 59 | 5 | 8.0 | 14.0 | 0.00 | 0.00 | 0.00 | 44 | 967.1 |
| 20260509124553 | 58 | 4 | 5.0 | 9.0 | 0.00 | 0.00 | 0.00 | 45 | 966.6 |
| 20260509123051 | 55 | 5 | 2.0 | 4.0 | 0.00 | 0.00 | 0.00 | 52 | 966.5 |
| 20260509121546 | 52 | 7 | 2.0 | 5.0 | 0.00 | 0.00 | 0.00 | 54 | 966.4 |
| 20260509120045 | 49 | 360 | 1.0 | 4.0 | 0.00 | 0.00 | 0.00 | 59 | 966.2 |
| 20260509114553 | 48 | 11 | 2.0 | 5.0 | 0.00 | 0.00 | 0.00 | 59 | 966.2 |
| 20260509113053 | 48 | 360 | 3.0 | 6.0 | 0.00 | 0.00 | 0.00 | 59 | 966.3 |
| 20260509111544 | 48 | 360 | 3.0 | 6.0 | 0.00 | 0.00 | 0.00 | 58 | 966.1 |
| 20260509110047 | 47 | 5 | 2.0 | 4.0 | 0.00 | 0.00 | 0.00 | 60 | 965.9 |
| 20260509104542 | 47 | 5 | 3.0 | 5.0 | 0.00 | 0.00 | 0.00 | 61 | 965.9 |
| 20260509103045 | 48 | 360 | 2.0 | 4.0 | 0.00 | 0.00 | 0.00 | 58 | 965.9 |
| 20260509101556 | 48 | 360 | 1.0 | 4.0 | 0.00 | 0.00 | 0.00 | 59 | 966.0 |
| 20260509100039 | 49 | 360 | 1.0 | 5.0 | 0.00 | 0.00 | 0.00 | 58 | 966.1 |
| 20260509094539 | 48 | 360 | 3.0 | 6.0 | 0.00 | 0.00 | 0.00 | 59 | 966.3 |
| 20260509093036 | 47 | 360 | 2.0 | 4.0 | 0.00 | 0.00 | 0.00 | 58 | 966.2 |
| 20260509091532 | 49 | 360 | 2.0 | 5.0 | 0.00 | 0.00 | 0.00 | 56 | 966.2 |
| 20260509090036 | 50 | 360 | 1.0 | 3.0 | 0.00 | 0.00 | 0.00 | 56 | 966.3 |
| 20260509084527 | 51 | 360 | 0.0 | 4.0 | 0.00 | 0.00 | 0.00 | 54 | 966.3 |
| 20260509083035 | 53 | 360 | 2.0 | 4.0 | 0.00 | 0.00 | 0.00 | 51 | 966.2 |
| 20260509081524 | 53 | 360 | 2.0 | 4.0 | 0.00 | 0.00 | 0.00 | 52 | 966.0 |
| 20260509080024 | 52 | 360 | 0.0 | 2.0 | 0.00 | 0.00 | 0.00 | 53 | 966.0 |
| 20260509074521 | 53 | 360 | 1.0 | 3.0 | 0.00 | 0.00 | 0.00 | 51 | 965.9 |
| 20260509073025 | 55 | 360 | 1.0 | 3.0 | 0.00 | 0.00 | 0.00 | 49 | 966.0 |
| 20260509071515 | 57 | 360 | 1.0 | 4.0 | 0.00 | 0.00 | 0.00 | 45 | 966.1 |
| 20260509070013 | 57 | 360 | 1.0 | 4.0 | 0.00 | 0.00 | 0.00 | 45 | 966.0 |
| 20260509064511 | 58 | 360 | 2.0 | 4.0 | 0.00 | 0.00 | 0.00 | 44 | 966.0 |
| 20260509063019 | 59 | 360 | 2.0 | 5.0 | 0.00 | 0.00 | 0.00 | 44 | 966.1 |
| 20260509061505 | 60 | 360 | 2.0 | 4.0 | 0.00 | 0.00 | 0.00 | 43 | 966.1 |
| 20260509060111 | 61 | 360 | 1.0 | 4.0 | 0.00 | 0.00 | 0.00 | 42 | 966.1 |
| 20260509054608 | 61 | 360 | 2.0 | 4.0 | 0.00 | 0.00 | 0.00 | 41 | 966.0 |
| 20260509053128 | 62 | 360 | 2.0 | 4.0 | 0.00 | 0.00 | 0.00 | 40 | 966.0 |